Allentown, PA

7:03 PM EST on December 03, 2016 (GMT -0500)
Allentown

Weather History for KXLL - March, 2014

Change the Weather History Date:

Sunday, March 30, 2014

  Actual Average (KABE) Record (KABE)
Temperature  
Mean Temperature 40 °F 44 °F  
Max Temperature 46 °F 55 °F 87 °F (1998)
Min Temperature 35 °F 33 °F 10 °F (1970)
Degree Days  
Heating Degree Days 24 21  
Month to date heating degree days 783  
Since 1 July heating degree days 5092  
Cooling Degree Days 0 0  
Month to date cooling degree days 0  
Year to date cooling degree days 0  
Moisture  
Dew Point 36 °F    
Average Humidity 78    
Maximum Humidity 87    
Minimum Humidity 65    
Precipitation  
Precipitation 0.33 in 0.12 in 1.34 in (1974)
Month to date precipitation 3.27  
Year to date precipitation 9.00  
Snow  
Snow 0.00 in 0.00 in 1.00 in (1942)
Month to date snowfall 4.8  
Since 1 July snowfall 31.8  
Snow Depth -    
Sea Level Pressure  
Sea Level Pressure 29.61 in    
Wind  
Wind Speed 10 mph (North)    
Max Wind Speed 24 mph    
Max Gust Speed 32 mph    
Visibility 8 miles    
Events Rain , Snow    
T = Trace of Precipitation, MM = Missing Value Source: NWS Daily Summary

Daily Weather History Graph

Daily Weather History Graph

Search for Another Location

Airport or City:

Trip Planner

Search our weather history database for the weather conditions in past years. The results will help you decide how hot, cold, wet, or windy it might be!

Date:

Astronomy

Mar. 30, 2014 Rise Set
Actual Time 6:48 AM EDT 7:24 PM EDT
Civil Twilight 6:21 AM EDT 7:52 PM EDT
Nautical Twilight 5:49 AM EDT 8:24 PM EDT
Astronomical Twilight 5:15 AM EDT 8:58 PM EDT
Moon 6:33 AM EDT (3/30) 7:34 PM EDT (3/30)
Length of Visible Light 13h 30m
Length of Day
12h 35m
Waning Crescent, 0% of the Moon is Illuminated
Mar 30
Waning Crescent
Mar 30
New
Apr 7
First Quarter
Apr 15
Full
Apr 22
Last Quarter

Hourly Weather History & Observations

Time (EDT) Temp. Windchill Dew Point Humidity Pressure Visibility Wind Dir Wind Speed Gust Speed Precip Events Conditions
12:15 AM 46.4 °F 42.9 °F 42.8 °F 87% 29.63 in 5.0 mi NNE 6.9 mph - N/A Rain Rain
12:35 AM 46.4 °F 43.5 °F 42.8 °F 87% 29.63 in 4.0 mi NE 5.8 mph - 0.01 in Rain Rain
12:55 AM 46.4 °F 42.9 °F 42.8 °F 87% 29.62 in 5.0 mi NNE 6.9 mph - 0.01 in   Drizzle
1:15 AM 46.4 °F 42.9 °F 42.8 °F 87% 29.60 in 4.0 mi NE 6.9 mph - 0.02 in Rain Rain
1:35 AM 46.4 °F 44.3 °F 42.8 °F 87% 29.61 in 5.0 mi North 4.6 mph - 0.03 in Rain Rain
1:55 AM 46.4 °F 42.4 °F 42.8 °F 87% 29.61 in 5.0 mi North 8.1 mph - 0.04 in Rain Rain
2:15 AM 46.4 °F 42.9 °F 42.8 °F 87% 29.61 in 3.0 mi North 6.9 mph - 0.01 in   Drizzle
2:35 AM 46.4 °F 41.9 °F 42.8 °F 87% 29.60 in 4.0 mi North 9.2 mph - 0.02 in   Drizzle
2:55 AM 44.6 °F 39.7 °F 41.0 °F 87% 29.60 in 5.0 mi NE 9.2 mph - 0.02 in   Light Drizzle
3:15 AM 44.6 °F 41.4 °F 41.0 °F 87% 29.58 in 4.0 mi North 5.8 mph - N/A   Light Drizzle
3:35 AM 44.6 °F 39.7 °F 41.0 °F 87% 29.58 in 5.0 mi NE 9.2 mph - N/A   Light Drizzle
3:55 AM 44.6 °F 39.7 °F 41.0 °F 87% 29.55 in 7.0 mi North 9.2 mph - N/A   Overcast
4:15 AM 44.6 °F 41.4 °F 41.0 °F 87% 29.57 in 10.0 mi NNE 5.8 mph - N/A   Overcast
4:35 AM 44.6 °F 42.2 °F 41.0 °F 87% 29.57 in 10.0 mi NE 4.6 mph - N/A   Overcast
4:55 AM 44.6 °F 38.8 °F 41.0 °F 87% 29.55 in 10.0 mi North 11.5 mph - N/A Rain Light Rain
5:15 AM 44.6 °F 40.2 °F 41.0 °F 87% 29.57 in 10.0 mi NE 8.1 mph - N/A Rain Light Rain
5:35 AM 44.6 °F 39.2 °F 41.0 °F 87% 29.56 in 10.0 mi NNE 10.4 mph - N/A   Light Drizzle
5:55 AM 44.6 °F 39.2 °F 39.2 °F 81% 29.56 in 10.0 mi NE 10.4 mph - N/A   Overcast
6:15 AM 44.6 °F 39.7 °F 39.2 °F 81% 29.57 in 10.0 mi North 9.2 mph - N/A   Overcast
6:35 AM 44.6 °F 40.2 °F 39.2 °F 81% 29.58 in 10.0 mi North 8.1 mph - N/A   Overcast
6:55 AM 44.6 °F 41.4 °F 39.2 °F 81% 29.58 in 10.0 mi North 5.8 mph - N/A   Overcast
7:15 AM 44.6 °F 40.7 °F 39.2 °F 81% 29.58 in 10.0 mi North 6.9 mph - N/A Rain Light Rain
7:35 AM 44.6 °F 39.7 °F 39.2 °F 81% 29.57 in 10.0 mi NNE 9.2 mph - N/A   Overcast
7:55 AM 44.6 °F 40.2 °F 39.2 °F 81% 29.59 in 10.0 mi North 8.1 mph - N/A   Overcast
8:15 AM 44.6 °F 39.7 °F 39.2 °F 81% 29.58 in 10.0 mi North 9.2 mph - N/A Rain Light Rain
8:35 AM 44.6 °F 39.2 °F 37.4 °F 76% 29.58 in 10.0 mi North 10.4 mph - N/A Rain Rain
8:55 AM 44.6 °F 39.2 °F 37.4 °F 76% 29.58 in 5.0 mi North 10.4 mph - 0.02 in Rain Rain
9:15 AM 44.6 °F 39.2 °F 39.2 °F 81% 29.58 in 7.0 mi NNW 10.4 mph - 0.03 in Rain Light Rain
9:35 AM 44.6 °F 38.1 °F 37.4 °F 76% 29.58 in 10.0 mi North 13.8 mph 18.4 mph 0.03 in   Drizzle
9:55 AM 44.6 °F 38.8 °F 37.4 °F 76% 29.58 in 10.0 mi North 11.5 mph 20.7 mph 0.03 in Rain Light Rain
10:15 AM 44.6 °F 38.1 °F 37.4 °F 76% 29.57 in 10.0 mi NNW 13.8 mph 21.9 mph N/A Rain Light Rain
10:35 AM 44.6 °F 37.4 °F 37.4 °F 76% 29.57 in 10.0 mi NNW 16.1 mph 19.6 mph N/A   Overcast
10:55 AM 44.6 °F 38.1 °F 35.6 °F 71% 29.57 in 10.0 mi North 13.8 mph 24.2 mph N/A   Overcast
11:15 AM 44.6 °F 37.8 °F 35.6 °F 71% 29.57 in 10.0 mi North 15.0 mph - N/A Rain Rain
11:35 AM 42.8 °F 36.2 °F 35.6 °F 76% 29.57 in 2.0 mi North 12.7 mph 19.6 mph 0.04 in Rain Light Rain
11:55 AM 42.8 °F 35.4 °F 35.6 °F 76% 29.56 in 7.0 mi North 15.0 mph 20.7 mph 0.05 in Rain Light Rain
12:15 PM 42.8 °F 35.4 °F 35.6 °F 76% 29.57 in 10.0 mi North 15.0 mph 19.6 mph N/A Rain Rain
12:35 PM 42.8 °F 36.6 °F 35.6 °F 76% 29.56 in 2.5 mi North 11.5 mph 21.9 mph 0.04 in Rain Rain
12:55 PM 42.8 °F 35.8 °F 35.6 °F 76% 29.56 in 2.0 mi North 13.8 mph 24.2 mph 0.08 in Rain Light Rain
1:15 PM 41.0 °F 33.9 °F 35.6 °F 81% 29.57 in 3.0 mi NNW 12.7 mph 18.4 mph 0.04 in Rain Rain
1:35 PM 41.0 °F 33.5 °F 35.6 °F 81% 29.58 in 10.0 mi NNW 13.8 mph 17.3 mph 0.05 in Rain Rain
1:55 PM 41.0 °F 33.9 °F 35.6 °F 81% 29.58 in 7.0 mi NNW 12.7 mph 20.7 mph 0.05 in Rain Light Rain
2:15 PM 41.0 °F 33.1 °F 33.8 °F 76% 29.58 in 7.0 mi North 15.0 mph 21.9 mph N/A   Light Drizzle
2:35 PM 41.0 °F 35.2 °F 33.8 °F 76% 29.58 in 10.0 mi NNW 9.2 mph - N/A   Overcast
2:55 PM 41.0 °F 33.5 °F 33.8 °F 76% 29.56 in 4.0 mi North 13.8 mph 20.7 mph 0.01 in Rain Heavy Rain
3:15 PM 41.0 °F 32.5 °F 33.8 °F 76% 29.56 in 10.0 mi North 17.3 mph 24.2 mph N/A Rain Light Rain
3:35 PM 41.0 °F 30.9 °F 33.8 °F 76% 29.55 in 10.0 mi North 24.2 mph 32.2 mph N/A   Overcast
3:55 PM 41.0 °F 33.5 °F 33.8 °F 76% 29.55 in 10.0 mi North 13.8 mph 25.3 mph N/A   Overcast
4:15 PM 41.0 °F 32.5 °F 32.0 °F 70% 29.56 in 10.0 mi NNW 17.3 mph 25.3 mph N/A   Overcast
4:35 PM 41.0 °F 34.3 °F 32.0 °F 70% 29.57 in 10.0 mi North 11.5 mph 24.2 mph N/A   Overcast
4:55 PM 41.0 °F 32.8 °F 32.0 °F 70% 29.56 in 10.0 mi NNW 16.1 mph 24.2 mph N/A   Overcast
5:15 PM 41.0 °F 32.8 °F 32.0 °F 70% 29.58 in 10.0 mi North 16.1 mph 21.9 mph N/A   Overcast
5:35 PM 41.0 °F 33.5 °F 32.0 °F 70% 29.60 in 10.0 mi NNW 13.8 mph 17.3 mph N/A   Overcast
5:55 PM 41.0 °F 33.1 °F 32.0 °F 70% 29.61 in 10.0 mi NNW 15.0 mph 23.0 mph N/A   Overcast
6:15 PM 41.0 °F 32.8 °F 30.2 °F 65% 29.62 in 10.0 mi North 16.1 mph 23.0 mph N/A   Overcast
6:35 PM 41.0 °F 33.5 °F 32.0 °F 70% 29.64 in 10.0 mi North 13.8 mph 19.6 mph N/A Rain Rain
6:55 PM 41.0 °F 34.3 °F 32.0 °F 70% 29.65 in 10.0 mi NNW 11.5 mph 19.6 mph 0.01 in Rain Light Rain
7:15 PM 39.2 °F 32.0 °F 32.0 °F 75% 29.66 in 10.0 mi NW 11.5 mph - N/A   Overcast
7:35 PM 37.4 °F 29.3 °F 32.0 °F 81% 29.67 in 10.0 mi NNW 12.7 mph 26.5 mph N/A Rain Light Rain
7:55 PM 37.4 °F 29.3 °F 32.0 °F 81% 29.69 in 7.0 mi NNW 12.7 mph 25.3 mph N/A Rain Rain
8:15 PM 37.4 °F 28.9 °F 32.0 °F 81% 29.69 in 10.0 mi NNW 13.8 mph 20.7 mph N/A Rain Rain
8:35 PM 35.6 °F 27.1 °F 30.2 °F 81% 29.70 in 5.0 mi NW 12.7 mph 18.4 mph 0.01 in Rain Light Rain
8:55 PM 35.6 °F 27.1 °F 30.2 °F 81% 29.71 in 7.0 mi NNW 12.7 mph 17.3 mph 0.01 in Rain Light Rain
9:15 PM 37.4 °F 28.2 °F 30.2 °F 75% 29.72 in 10.0 mi NNW 16.1 mph 21.9 mph N/A   Light Drizzle
9:35 PM 37.4 °F 28.5 °F 30.2 °F 75% 29.73 in 10.0 mi NNW 15.0 mph 24.2 mph N/A Rain Rain
9:55 PM 37.4 °F 30.8 °F 30.2 °F 75% 29.73 in 10.0 mi NW 9.2 mph - N/A Snow Light Snow
10:15 PM 37.4 °F 30.3 °F 30.2 °F 75% 29.73 in 10.0 mi NNW 10.4 mph 19.6 mph N/A Rain Light Rain
10:35 PM 37.4 °F 30.8 °F 30.2 °F 75% 29.74 in 7.0 mi NNW 9.2 mph 24.2 mph N/A Rain Light Rain
10:55 PM 37.4 °F 28.9 °F 28.4 °F 70% 29.75 in 10.0 mi NNW 13.8 mph 24.2 mph N/A   Overcast
11:15 PM 37.4 °F 29.8 °F 28.4 °F 70% 29.75 in 7.0 mi NNW 11.5 mph 21.9 mph N/A Rain Light Rain
11:35 PM 37.4 °F 29.3 °F 28.4 °F 70% 29.76 in 10.0 mi NNW 12.7 mph 24.2 mph N/A   Overcast
11:55 PM 37.4 °F 28.5 °F 28.4 °F 70% 29.77 in 10.0 mi NNW 15.0 mph 25.3 mph N/A Rain Light Rain